createdAt,value
2018-12-06T00:00:49.007Z,92.26
2018-12-06T00:03:29.896Z,92.44
2018-12-06T00:06:00.075Z,92.50
2018-12-06T00:08:29.269Z,92.12
2018-12-06T00:11:03.158Z,92.21
2018-12-06T00:13:31.859Z,92.50
2018-12-06T00:16:01.519Z,92.60
2018-12-06T00:18:38.868Z,93.24
2018-12-06T00:21:14.504Z,93.20
2018-12-06T00:23:45.819Z,92.68
2018-12-06T00:26:17.367Z,93.26
2018-12-06T00:28:45.409Z,93.39
2018-12-06T00:31:13.495Z,93.48
2018-12-06T00:33:41.582Z,94.04
2018-12-06T00:36:09.719Z,94.41
2018-12-06T00:38:37.883Z,94.59
2018-12-06T00:41:05.955Z,94.27
2018-12-06T00:43:34.127Z,94.50
2018-12-06T00:46:02.210Z,95.07
2018-12-06T00:48:30.287Z,95.42
2018-12-06T00:50:58.380Z,95.64
2018-12-06T00:53:26.552Z,96.08
2018-12-06T00:55:54.762Z,96.56
2018-12-06T00:58:24.037Z,96.77
2018-12-06T01:00:52.174Z,97.13
2018-12-06T01:03:20.332Z,97.78
2018-12-06T01:05:48.548Z,98.06
2018-12-06T01:08:16.716Z,97.35
2018-12-06T01:10:44.962Z,97.34
2018-12-06T01:13:13.064Z,96.89
2018-12-06T01:15:41.202Z,97.50
2018-12-06T01:18:09.349Z,97.36
2018-12-06T01:20:37.574Z,97.91
2018-12-06T01:23:05.806Z,98.28
2018-12-06T01:25:33.998Z,97.85
2018-12-06T01:28:02.119Z,98.31
2018-12-06T01:30:30.277Z,98.49
2018-12-06T01:32:58.465Z,98.32
2018-12-06T01:35:26.537Z,98.60
2018-12-06T01:37:54.605Z,98.40
2018-12-06T01:40:22.694Z,99.03
2018-12-06T01:42:50.839Z,99.03
2018-12-06T01:45:18.925Z,98.96
2018-12-06T01:47:47.090Z,99.04
2018-12-06T01:50:15.251Z,98.90
2018-12-06T01:52:43.327Z,98.23
2018-12-06T01:55:11.505Z,98.40
2018-12-06T01:57:39.639Z,99.02
2018-12-06T02:00:08.472Z,99.02
2018-12-06T02:02:36.519Z,99.39
2018-12-06T02:05:04.946Z,99.55
2018-12-06T02:07:33.261Z,100.00
2018-12-06T02:10:01.357Z,100.00
2018-12-06T02:12:29.422Z,100.00
2018-12-06T02:14:57.470Z,100.00
2018-12-06T02:17:25.617Z,100.00
2018-12-06T02:19:53.781Z,100.00
2018-12-06T02:22:21.954Z,100.00
2018-12-06T02:24:50.121Z,100.00
2018-12-06T02:27:18.253Z,100.00
2018-12-06T02:29:51.673Z,100.00
2018-12-06T02:32:19.922Z,100.00
2018-12-06T02:34:47.998Z,100.00
2018-12-06T02:37:16.336Z,100.00
2018-12-06T02:39:44.492Z,100.00
2018-12-06T02:42:12.678Z,100.00
2018-12-06T02:44:40.814Z,100.00
2018-12-06T02:47:08.955Z,100.00
2018-12-06T02:49:37.037Z,100.00
2018-12-06T02:52:05.275Z,100.00
2018-12-06T02:54:33.357Z,100.00
2018-12-06T02:57:01.512Z,99.94
2018-12-06T02:59:29.634Z,100.00
2018-12-06T03:01:57.781Z,100.00
2018-12-06T03:04:25.877Z,100.00
2018-12-06T03:06:54.133Z,100.00
2018-12-06T03:09:22.268Z,100.00
2018-12-06T03:11:50.346Z,100.00
2018-12-06T03:14:18.402Z,100.00
2018-12-06T03:16:46.686Z,100.00
2018-12-06T03:19:14.835Z,100.00
2018-12-06T03:21:42.977Z,100.00
2018-12-06T03:24:11.038Z,100.00
2018-12-06T03:26:39.179Z,100.00
2018-12-06T03:29:07.382Z,100.00
2018-12-06T03:31:35.474Z,100.00
2018-12-06T03:34:03.747Z,100.00
2018-12-06T03:36:31.831Z,100.00
2018-12-06T03:38:59.881Z,100.00
2018-12-06T03:41:27.956Z,100.00
2018-12-06T03:43:56.115Z,100.00
2018-12-06T03:46:24.181Z,100.00
2018-12-06T03:48:52.327Z,100.00
2018-12-06T03:51:20.463Z,100.00
2018-12-06T03:53:48.526Z,100.00
2018-12-06T03:56:16.750Z,100.00
2018-12-06T03:58:44.851Z,100.00
2018-12-06T04:01:13.024Z,100.00
2018-12-06T04:03:41.170Z,100.00
2018-12-06T04:06:09.397Z,100.00
2018-12-06T04:08:37.547Z,100.00
2018-12-06T04:11:05.696Z,100.00
2018-12-06T04:13:33.845Z,100.00
2018-12-06T04:16:01.917Z,100.00
2018-12-06T04:18:29.989Z,100.00
2018-12-06T04:20:58.129Z,100.00
2018-12-06T04:23:26.224Z,100.00
2018-12-06T04:25:54.328Z,100.00
2018-12-06T04:28:22.488Z,100.00
2018-12-06T04:30:50.661Z,100.00
2018-12-06T04:33:18.753Z,100.00
2018-12-06T04:35:46.845Z,100.00
2018-12-06T04:38:14.931Z,100.00
2018-12-06T04:40:43.013Z,100.00
2018-12-06T04:43:11.202Z,100.00
2018-12-06T04:45:39.381Z,100.00
2018-12-06T04:48:07.650Z,100.00
2018-12-06T04:50:35.790Z,100.00
2018-12-06T04:53:03.939Z,100.00
2018-12-06T04:55:32.028Z,100.00
2018-12-06T04:58:00.227Z,100.00
2018-12-06T05:00:28.314Z,100.00
2018-12-06T05:02:56.396Z,100.00
2018-12-06T05:05:24.831Z,100.00
2018-12-06T05:07:53.589Z,100.00
2018-12-06T05:10:21.782Z,100.00
2018-12-06T05:12:49.921Z,100.00
2018-12-06T05:15:18.010Z,100.00
2018-12-06T05:17:46.104Z,100.00
2018-12-06T05:20:14.253Z,100.00
2018-12-06T05:22:42.343Z,100.00
2018-12-06T05:25:10.465Z,100.00
2018-12-06T05:27:38.640Z,100.00
2018-12-06T05:30:08.470Z,100.00
2018-12-06T05:32:36.714Z,100.00
2018-12-06T05:35:05.638Z,100.00
2018-12-06T05:37:33.791Z,100.00
2018-12-06T05:40:01.908Z,100.00
2018-12-06T05:42:30.030Z,100.00
2018-12-06T05:44:58.123Z,100.00
2018-12-06T05:47:26.281Z,100.00
2018-12-06T05:49:54.391Z,100.00
2018-12-06T05:52:22.547Z,100.00
2018-12-06T05:54:50.620Z,100.00
2018-12-06T05:57:18.822Z,100.00
2018-12-06T05:59:46.913Z,100.00
2018-12-06T06:02:15.007Z,100.00
2018-12-06T06:04:43.097Z,100.00
2018-12-06T06:07:11.154Z,100.00
2018-12-06T06:09:39.320Z,100.00
2018-12-06T06:12:07.558Z,100.00
2018-12-06T06:14:35.726Z,100.00
2018-12-06T06:17:03.844Z,100.00
2018-12-06T06:19:31.926Z,100.00
2018-12-06T06:22:00.099Z,100.00
2018-12-06T06:24:28.269Z,100.00
2018-12-06T06:26:56.369Z,100.00
2018-12-06T06:29:24.441Z,100.00
2018-12-06T06:31:52.609Z,100.00
2018-12-06T06:34:20.688Z,100.00
2018-12-06T06:36:48.785Z,100.00
2018-12-06T06:39:16.865Z,100.00
2018-12-06T06:41:45.029Z,100.00
2018-12-06T06:47:48.364Z,100.00
2018-12-06T06:50:16.614Z,100.00
2018-12-06T06:52:44.721Z,100.00
2018-12-06T06:55:12.835Z,100.00
2018-12-06T06:57:41.014Z,100.00
2018-12-06T07:00:09.328Z,100.00
2018-12-06T07:02:40.394Z,100.00
2018-12-06T07:05:08.609Z,100.00
2018-12-06T07:07:36.670Z,100.00
2018-12-06T07:10:05.933Z,100.00
2018-12-06T07:12:34.116Z,100.00
2018-12-06T07:15:02.282Z,100.00
2018-12-06T07:17:30.377Z,100.00
2018-12-06T07:19:58.462Z,100.00
2018-12-06T07:22:26.727Z,100.00
2018-12-06T07:24:54.855Z,100.00
2018-12-06T07:27:22.920Z,100.00
2018-12-06T07:29:51.107Z,100.00
2018-12-06T07:32:19.290Z,100.00
2018-12-06T07:34:47.443Z,100.00
2018-12-06T07:37:15.581Z,100.00
2018-12-06T07:39:43.673Z,100.00
2018-12-06T07:42:11.797Z,100.00
2018-12-06T07:44:39.878Z,100.00
2018-12-06T07:47:08.123Z,100.00
2018-12-06T07:49:36.365Z,100.00
2018-12-06T07:52:04.541Z,100.00
2018-12-06T07:54:32.642Z,100.00
2018-12-06T07:57:00.714Z,100.00
2018-12-06T07:59:28.887Z,100.00
2018-12-06T08:01:56.949Z,100.00
2018-12-06T08:04:25.030Z,100.00
2018-12-06T08:06:53.211Z,100.00
2018-12-06T08:09:21.591Z,100.00
2018-12-06T08:11:49.730Z,100.00
2018-12-06T08:14:17.795Z,100.00
2018-12-06T08:16:45.881Z,100.00
2018-12-06T08:19:14.109Z,100.00
2018-12-06T08:21:42.236Z,100.00
2018-12-06T08:24:10.359Z,100.00
2018-12-06T08:26:38.425Z,100.00
2018-12-06T08:29:06.579Z,100.00
2018-12-06T08:31:34.735Z,100.00
2018-12-06T08:34:06.187Z,100.00
2018-12-06T08:36:32.977Z,100.00
2018-12-06T08:39:01.080Z,100.00
2018-12-06T08:41:29.185Z,100.00
2018-12-06T08:43:57.270Z,100.00
2018-12-06T08:46:25.355Z,100.00
2018-12-06T08:48:53.441Z,100.00
2018-12-06T08:51:21.622Z,100.00
2018-12-06T08:53:49.721Z,100.00
2018-12-06T08:56:17.881Z,100.00
2018-12-06T08:58:46.043Z,100.00
2018-12-06T09:01:14.277Z,100.00
2018-12-06T09:03:42.361Z,100.00
2018-12-06T09:06:10.429Z,100.00
2018-12-06T09:08:38.507Z,100.00
2018-12-06T09:11:06.597Z,100.00
2018-12-06T09:13:34.736Z,100.00
2018-12-06T09:16:02.914Z,100.00
2018-12-06T09:18:31.003Z,100.00
2018-12-06T09:20:59.177Z,100.00
2018-12-06T09:23:27.573Z,100.00
2018-12-06T09:25:55.667Z,100.00
2018-12-06T09:28:23.842Z,100.00
2018-12-06T09:30:51.921Z,100.00
2018-12-06T09:33:20.106Z,100.00
2018-12-06T09:35:48.262Z,100.00
2018-12-06T09:38:16.338Z,100.00
2018-12-06T09:40:44.615Z,100.00
2018-12-06T09:43:12.698Z,100.00
2018-12-06T09:45:40.906Z,100.00
2018-12-06T09:48:09.219Z,100.00
2018-12-06T09:50:37.453Z,100.00
2018-12-06T09:53:05.601Z,100.00
2018-12-06T09:58:07.476Z,100.00
2018-12-06T10:00:35.580Z,100.00
2018-12-06T10:03:03.858Z,100.00
2018-12-06T10:05:32.078Z,100.00
2018-12-06T10:08:01.533Z,100.00
2018-12-06T10:10:29.754Z,100.00
2018-12-06T10:12:57.970Z,100.00
2018-12-06T10:15:26.771Z,100.00
2018-12-06T10:17:54.865Z,100.00
2018-12-06T10:20:23.029Z,100.00
2018-12-06T10:22:51.132Z,100.00
2018-12-06T10:25:19.284Z,100.00
2018-12-06T10:27:47.442Z,100.00
2018-12-06T10:30:15.600Z,100.00
2018-12-06T10:32:43.726Z,100.00
2018-12-06T10:35:12.006Z,100.00
2018-12-06T10:37:40.173Z,100.00
2018-12-06T10:40:08.446Z,100.00
2018-12-06T10:42:36.639Z,100.00
2018-12-06T10:45:05.610Z,100.00
2018-12-06T10:47:33.820Z,100.00
2018-12-06T10:50:02.045Z,100.00
2018-12-06T10:52:30.164Z,100.00
2018-12-06T10:54:58.336Z,100.00
2018-12-06T10:57:26.614Z,100.00
2018-12-06T10:59:54.775Z,100.00
2018-12-06T11:02:27.900Z,100.00
2018-12-06T11:04:55.980Z,100.00
2018-12-06T11:07:24.155Z,100.00
2018-12-06T11:09:52.318Z,100.00
2018-12-06T11:12:20.412Z,100.00
2018-12-06T11:14:48.595Z,100.00
2018-12-06T11:17:16.756Z,100.00
2018-12-06T11:19:45.095Z,100.00
2018-12-06T11:22:13.379Z,100.00
2018-12-06T11:24:41.595Z,100.00
2018-12-06T11:27:09.758Z,100.00
2018-12-06T11:29:37.905Z,100.00
2018-12-06T11:32:05.985Z,100.00
2018-12-06T11:34:34.083Z,100.00
2018-12-06T11:37:02.173Z,100.00
2018-12-06T11:39:42.179Z,100.00
2018-12-06T11:42:10.250Z,100.00
2018-12-06T11:44:38.349Z,100.00
2018-12-06T11:47:06.461Z,100.00
2018-12-06T11:49:34.574Z,100.00
2018-12-06T11:52:02.729Z,100.00
2018-12-06T11:54:30.863Z,100.00
2018-12-06T11:56:59.013Z,100.00
2018-12-06T11:59:27.111Z,100.00
2018-12-06T12:01:55.666Z,100.00
2018-12-06T12:04:24.658Z,100.00
2018-12-06T12:06:52.781Z,100.00
2018-12-06T12:09:20.895Z,100.00
2018-12-06T12:11:49.078Z,100.00
2018-12-06T12:14:17.207Z,100.00
2018-12-06T12:16:45.310Z,100.00
2018-12-06T12:19:13.481Z,100.00
2018-12-06T12:21:41.790Z,100.00
2018-12-06T12:24:09.889Z,100.00
2018-12-06T12:26:38.115Z,100.00
2018-12-06T12:29:06.398Z,100.00
2018-12-06T12:31:34.514Z,100.00
2018-12-06T12:34:02.665Z,100.00
2018-12-06T12:36:30.774Z,100.00
2018-12-06T12:38:58.963Z,100.00
2018-12-06T12:41:27.100Z,100.00
2018-12-06T12:43:55.328Z,100.00
2018-12-06T12:46:25.524Z,100.00
2018-12-06T12:48:53.634Z,100.00
2018-12-06T12:51:21.732Z,100.00
2018-12-06T12:53:49.797Z,100.00
2018-12-06T12:56:17.903Z,100.00
2018-12-06T12:58:45.998Z,100.00
2018-12-06T13:01:14.100Z,100.00
2018-12-06T13:03:42.247Z,100.00
2018-12-06T13:06:10.459Z,100.00
2018-12-06T13:08:38.611Z,100.00
2018-12-06T13:11:06.750Z,100.00
2018-12-06T13:13:34.844Z,100.00
2018-12-06T13:16:03.013Z,100.00
2018-12-06T13:18:31.242Z,100.00
2018-12-06T13:21:00.349Z,100.00
2018-12-06T13:23:28.430Z,100.00
2018-12-06T13:25:56.597Z,100.00
2018-12-06T13:28:24.770Z,100.00
2018-12-06T13:30:53.095Z,100.00
2018-12-06T13:33:21.195Z,100.00
2018-12-06T13:35:49.579Z,100.00
2018-12-06T13:38:17.649Z,100.00
2018-12-06T13:40:45.852Z,100.00
2018-12-06T13:43:14.042Z,100.00
2018-12-06T13:45:42.129Z,100.00
2018-12-06T13:48:10.322Z,100.00
2018-12-06T13:50:38.574Z,100.00
2018-12-06T13:53:06.782Z,100.00
2018-12-06T13:55:35.162Z,100.00
2018-12-06T13:58:03.523Z,100.00
2018-12-06T14:00:33.029Z,100.00
2018-12-06T14:03:01.721Z,100.00
2018-12-06T14:05:29.923Z,100.00
2018-12-06T14:07:58.238Z,100.00
2018-12-06T14:10:26.406Z,100.00
2018-12-06T14:12:54.546Z,100.00
2018-12-06T14:15:22.754Z,100.00
2018-12-06T14:17:50.893Z,100.00
2018-12-06T14:20:19.009Z,100.00
2018-12-06T14:22:47.222Z,100.00
2018-12-06T14:25:15.398Z,100.00
2018-12-06T14:27:43.513Z,100.00
2018-12-06T14:30:11.740Z,100.00
2018-12-06T14:32:40.046Z,100.00
2018-12-06T14:35:08.247Z,100.00
2018-12-06T14:37:36.391Z,100.00
2018-12-06T14:40:05.414Z,100.00
2018-12-06T14:42:33.688Z,100.00
2018-12-06T14:45:01.798Z,100.00
2018-12-06T14:47:29.962Z,100.00
2018-12-06T14:49:58.095Z,100.00
2018-12-06T14:52:26.226Z,100.00
2018-12-06T14:54:54.318Z,100.00
2018-12-06T14:57:22.417Z,100.00
2018-12-06T14:59:50.529Z,100.00
2018-12-06T15:02:18.757Z,100.00
2018-12-06T15:04:46.862Z,100.00
2018-12-06T15:07:14.972Z,100.00
2018-12-06T15:09:43.067Z,100.00
2018-12-06T15:12:11.179Z,100.00
2018-12-06T15:14:39.295Z,100.00
2018-12-06T15:17:07.393Z,100.00
2018-12-06T15:19:35.575Z,100.00
2018-12-06T15:22:03.697Z,100.00
2018-12-06T15:24:31.812Z,100.00
2018-12-06T15:27:06.947Z,100.00
2018-12-06T15:29:36.328Z,100.00
2018-12-06T15:32:05.556Z,100.00
2018-12-06T15:34:43.022Z,100.00
2018-12-06T15:37:11.753Z,100.00
2018-12-06T15:39:40.683Z,100.00
2018-12-06T15:42:10.898Z,100.00
2018-12-06T15:44:40.111Z,100.00
2018-12-06T15:47:11.899Z,100.00
2018-12-06T15:49:42.283Z,100.00
2018-12-06T15:52:10.636Z,100.00
2018-12-06T15:54:42.236Z,100.00
2018-12-06T15:57:12.433Z,100.00
2018-12-06T15:59:43.086Z,100.00
2018-12-06T16:02:12.780Z,100.00
2018-12-06T16:04:42.420Z,100.00
2018-12-06T16:07:14.434Z,100.00
2018-12-06T16:09:47.197Z,100.00
2018-12-06T16:12:19.270Z,100.00
2018-12-06T16:14:48.827Z,100.00
2018-12-06T16:17:24.085Z,100.00
2018-12-06T16:19:55.316Z,100.00
2018-12-06T16:22:25.033Z,100.00
2018-12-06T16:24:56.995Z,100.00
2018-12-06T16:27:27.239Z,100.00
2018-12-06T16:29:58.319Z,100.00
2018-12-06T16:32:27.875Z,100.00
2018-12-06T16:34:59.935Z,100.00
2018-12-06T16:37:36.035Z,100.00
2018-12-06T16:40:10.035Z,100.00
2018-12-06T16:42:44.484Z,100.00
2018-12-06T16:45:14.752Z,100.00
2018-12-06T16:47:44.531Z,100.00
2018-12-06T16:50:13.912Z,100.00
2018-12-06T16:52:51.092Z,100.00
2018-12-06T16:55:25.158Z,100.00
2018-12-06T16:57:55.235Z,100.00
2018-12-06T17:00:25.047Z,100.00
2018-12-06T17:02:59.581Z,100.00
2018-12-06T17:05:28.886Z,100.00
2018-12-06T17:08:00.783Z,100.00
2018-12-06T17:10:34.829Z,100.00
2018-12-06T17:13:04.931Z,100.00
2018-12-06T17:15:36.634Z,100.00
2018-12-06T17:18:27.882Z,100.00
2018-12-06T17:21:02.860Z,100.00
2018-12-06T17:23:41.312Z,100.00
2018-12-06T17:26:13.110Z,100.00
2018-12-06T17:28:46.790Z,100.00
2018-12-06T17:31:27.743Z,100.00
2018-12-06T17:37:38.261Z,100.00
2018-12-06T17:40:18.744Z,100.00
2018-12-06T17:43:01.436Z,100.00
2018-12-06T17:45:40.009Z,100.00
2018-12-06T17:48:10.157Z,100.00
2018-12-06T17:50:44.892Z,100.00
2018-12-06T17:53:15.007Z,100.00
2018-12-06T17:56:01.103Z,100.00
2018-12-06T17:58:36.016Z,100.00
2018-12-06T18:01:08.395Z,100.00
2018-12-06T18:03:50.084Z,100.00
2018-12-06T18:06:18.383Z,100.00
2018-12-06T18:08:49.510Z,100.00
2018-12-06T18:11:20.650Z,100.00
2018-12-06T18:13:59.702Z,100.00
2018-12-06T18:16:30.627Z,100.00
2018-12-06T18:18:59.550Z,100.00
2018-12-06T18:21:32.735Z,100.00
2018-12-06T18:24:03.542Z,100.00
2018-12-06T18:26:35.017Z,100.00
2018-12-06T18:29:05.254Z,100.00
2018-12-06T18:31:35.987Z,100.00
2018-12-06T18:34:08.265Z,100.00
2018-12-06T18:36:40.047Z,100.00
2018-12-06T18:39:11.143Z,100.00
2018-12-06T18:41:42.885Z,100.00
2018-12-06T18:44:16.047Z,100.00
2018-12-06T18:46:45.623Z,100.00
2018-12-06T18:49:15.176Z,100.00
2018-12-06T18:51:49.527Z,100.00
2018-12-06T18:54:19.011Z,100.00
2018-12-06T18:56:51.374Z,100.00
2018-12-06T18:59:21.723Z,100.00
2018-12-06T19:01:51.641Z,100.00
2018-12-06T19:04:24.421Z,100.00
2018-12-06T19:06:54.148Z,100.00
2018-12-06T19:09:23.666Z,100.00
2018-12-06T19:11:52.401Z,100.00
2018-12-06T19:14:22.151Z,100.00
2018-12-06T19:20:09.260Z,100.00
2018-12-06T19:22:47.485Z,100.00
2018-12-06T19:25:21.007Z,100.00
2018-12-06T19:27:54.130Z,100.00
2018-12-06T19:30:34.204Z,100.00
2018-12-06T19:33:07.903Z,100.00
2018-12-06T19:35:39.922Z,100.00
2018-12-06T19:38:13.262Z,100.00
2018-12-06T19:40:42.959Z,100.00
2018-12-06T19:43:11.376Z,100.00
2018-12-06T19:45:41.489Z,100.00
2018-12-06T19:48:19.836Z,100.00
2018-12-06T19:50:57.914Z,100.00
2018-12-06T19:53:28.949Z,100.00
2018-12-06T19:56:03.047Z,100.00
2018-12-06T19:58:32.217Z,100.00
2018-12-06T20:01:01.854Z,100.00
2018-12-06T20:03:33.229Z,100.00
2018-12-06T20:06:06.410Z,100.00
2018-12-06T20:08:37.490Z,100.00
2018-12-06T20:11:09.854Z,100.00
2018-12-06T20:16:15.800Z,100.00
2018-12-06T20:18:45.278Z,100.00
2018-12-06T20:21:15.625Z,100.00
2018-12-06T20:23:49.922Z,100.00
2018-12-06T20:26:20.489Z,100.00
2018-12-06T20:28:53.594Z,100.00
2018-12-06T20:31:25.909Z,100.00
2018-12-06T20:34:33.236Z,100.00
2018-12-06T20:37:05.504Z,100.00
2018-12-06T20:39:41.229Z,100.00
2018-12-06T20:42:17.019Z,100.00
2018-12-06T20:47:43.848Z,100.00
2018-12-06T20:50:17.660Z,100.00
2018-12-06T20:52:48.631Z,100.00
2018-12-06T20:55:20.067Z,100.00
2018-12-06T20:57:55.732Z,100.00
2018-12-06T21:00:29.375Z,100.00
2018-12-06T21:02:58.700Z,100.00
2018-12-06T21:05:27.829Z,100.00
2018-12-06T21:08:00.167Z,100.00
2018-12-06T21:10:31.434Z,100.00
2018-12-06T21:13:00.037Z,100.00
2018-12-06T21:15:30.488Z,100.00
2018-12-06T21:18:09.367Z,100.00
2018-12-06T21:20:47.577Z,100.00
2018-12-06T21:23:17.499Z,100.00
2018-12-06T21:25:47.761Z,100.00
2018-12-06T21:28:18.894Z,100.00
2018-12-06T21:30:52.962Z,100.00
2018-12-06T21:33:23.065Z,100.00
2018-12-06T21:35:58.094Z,100.00
2018-12-06T21:38:31.310Z,100.00
2018-12-06T21:41:02.164Z,100.00
2018-12-06T21:43:34.120Z,100.00
2018-12-06T21:46:05.768Z,100.00
2018-12-06T21:48:35.495Z,100.00
2018-12-06T21:51:10.406Z,100.00
2018-12-06T21:53:46.947Z,100.00
2018-12-06T21:56:21.156Z,100.00
2018-12-06T21:58:59.274Z,100.00
2018-12-06T22:01:31.058Z,100.00
2018-12-06T22:04:01.619Z,100.00
2018-12-06T22:06:34.192Z,100.00
2018-12-06T22:09:04.312Z,100.00
2018-12-06T22:11:37.025Z,100.00
2018-12-06T22:14:06.472Z,100.00
2018-12-06T22:16:35.101Z,100.00
2018-12-06T22:19:03.529Z,100.00
2018-12-06T22:21:33.832Z,100.00
2018-12-06T22:24:13.193Z,100.00
2018-12-06T22:26:41.597Z,100.00
2018-12-06T22:29:11.341Z,100.00
2018-12-06T22:31:48.301Z,100.00
2018-12-06T22:34:17.594Z,100.00
2018-12-06T22:36:47.413Z,100.00
2018-12-06T22:39:19.250Z,100.00
2018-12-06T22:41:48.275Z,100.00
2018-12-06T22:44:21.543Z,100.00
2018-12-06T22:46:52.921Z,100.00
2018-12-06T22:49:28.084Z,100.00
2018-12-06T22:51:57.010Z,100.00
2018-12-06T22:54:28.323Z,100.00
2018-12-06T22:57:00.919Z,100.00
2018-12-06T22:59:29.281Z,100.00
2018-12-06T23:02:07.960Z,100.00
2018-12-06T23:04:38.416Z,100.00
2018-12-06T23:07:08.862Z,100.00
2018-12-06T23:09:42.732Z,100.00
2018-12-06T23:12:16.660Z,100.00
2018-12-06T23:14:46.176Z,100.00
2018-12-06T23:17:15.522Z,100.00
2018-12-06T23:19:48.174Z,100.00
2018-12-06T23:22:17.966Z,100.00
2018-12-06T23:24:47.619Z,100.00
2018-12-06T23:27:19.288Z,100.00
2018-12-06T23:29:49.269Z,100.00
2018-12-06T23:32:20.704Z,100.00
2018-12-06T23:34:52.027Z,100.00
2018-12-06T23:37:22.525Z,100.00
2018-12-06T23:53:30.531Z,100.00
2018-12-06T23:59:08.168Z,100.00
